Angostura, New Mexico
Current Conditions -  °F | °C
As of 11:15 AM on Thursday 18 Dec 2014 (Local Time) from KSKX Reporting Station
Scattered Clouds Scattered Clouds  
Wind Chill: -4°   Ceiling: Unl
Heat Index: -1°   Visibility: 10mi
Dew Point: -4°   Wind: 6mph
Humidity: 80%   Direction: 320°NW
Pressure: 30.13"   Gusts: NA
Location:  36.1892°N, 105.688°W
Report Text: KSKX 181815Z AUTO 32005KT 10SM SCT008 M01/M04 A3013 RMK AO1
Loading
Personal Weather Stations






























Interactive Weather Map New forecast layout! Learn more

10-Day Weather Forecast

Advertisements
Track Severe Weather on mobile